createdAt,value
2019-06-26T00:02:28.847Z,21.99
2019-06-26T00:05:01.484Z,22.04
2019-06-26T00:07:34.189Z,21.87
2019-06-26T00:10:07.221Z,21.77
2019-06-26T00:12:40.064Z,21.84
2019-06-26T00:15:13.072Z,21.85
2019-06-26T00:17:45.815Z,21.72
2019-06-26T00:20:19.138Z,21.78
2019-06-26T00:22:51.849Z,21.82
2019-06-26T00:25:24.572Z,21.81
2019-06-26T00:27:57.291Z,21.75
2019-06-26T00:30:29.950Z,21.62
2019-06-26T00:33:02.690Z,21.58
2019-06-26T00:35:35.772Z,21.59
2019-06-26T00:38:08.566Z,21.68
2019-06-26T00:40:41.285Z,21.63
2019-06-26T00:43:13.914Z,21.53
2019-06-26T00:45:46.795Z,21.46
2019-06-26T00:48:19.574Z,21.54
2019-06-26T00:50:58.347Z,21.41
2019-06-26T00:53:31.105Z,21.44
2019-06-26T00:56:52.323Z,21.29
2019-06-26T00:59:25.054Z,21.25
2019-06-26T01:01:57.711Z,21.17
2019-06-26T01:04:34.157Z,21.08
2019-06-26T01:07:07.055Z,21.03
2019-06-26T01:09:39.802Z,21.21
2019-06-26T01:12:12.648Z,21.20
2019-06-26T01:14:45.431Z,21.11
2019-06-26T01:17:18.225Z,21.05
2019-06-26T01:19:50.870Z,21.12
2019-06-26T01:22:23.515Z,21.04
2019-06-26T01:24:56.194Z,21.00
2019-06-26T01:27:29.345Z,20.92
2019-06-26T01:30:02.049Z,20.89
2019-06-26T01:32:34.716Z,20.89
2019-06-26T01:35:07.620Z,20.92
2019-06-26T01:37:40.231Z,20.85
2019-06-26T01:40:13.294Z,20.91
2019-06-26T01:42:46.002Z,21.01
2019-06-26T01:45:18.774Z,20.83
2019-06-26T01:47:51.609Z,20.80
2019-06-26T01:50:24.282Z,20.71
2019-06-26T01:52:57.055Z,20.64
2019-06-26T01:55:29.755Z,20.65
2019-06-26T01:58:02.478Z,20.71
2019-06-26T02:00:35.091Z,20.61
2019-06-26T02:03:07.759Z,20.42
2019-06-26T02:05:40.376Z,20.45
2019-06-26T02:08:13.070Z,20.42
2019-06-26T02:10:46.015Z,20.36
2019-06-26T02:13:18.709Z,20.51
2019-06-26T02:15:51.325Z,20.47
2019-06-26T02:18:46.641Z,20.45
2019-06-26T02:21:19.455Z,20.38
2019-06-26T02:23:52.321Z,20.46
2019-06-26T02:26:25.112Z,20.47
2019-06-26T02:28:58.126Z,20.36
2019-06-26T02:31:31.111Z,20.23
2019-06-26T02:34:03.798Z,20.16
2019-06-26T02:36:36.463Z,20.13
2019-06-26T02:39:09.306Z,20.07
2019-06-26T02:41:42.090Z,20.09
2019-06-26T02:44:15.092Z,20.09
2019-06-26T02:46:47.866Z,20.28
2019-06-26T02:49:20.479Z,20.13
2019-06-26T02:51:53.192Z,20.14
2019-06-26T02:54:25.906Z,20.00
2019-06-26T02:56:58.505Z,19.99
2019-06-26T02:59:31.115Z,19.98
2019-06-26T03:02:03.766Z,20.04
2019-06-26T03:04:36.352Z,19.89
2019-06-26T03:07:08.969Z,19.91
2019-06-26T03:09:41.635Z,19.87
2019-06-26T03:12:14.277Z,19.93
2019-06-26T03:14:46.949Z,19.88
2019-06-26T03:17:19.712Z,19.92
2019-06-26T03:19:52.397Z,20.02
2019-06-26T03:22:25.042Z,20.13
2019-06-26T03:24:57.638Z,20.12
2019-06-26T03:27:30.395Z,19.93
2019-06-26T03:30:03.121Z,19.99
2019-06-26T03:32:35.738Z,19.96
2019-06-26T03:35:08.688Z,20.07
2019-06-26T03:37:41.336Z,20.15
2019-06-26T03:40:15.522Z,19.95
2019-06-26T03:42:48.385Z,20.05
2019-06-26T03:45:26.035Z,20.06
2019-06-26T03:47:56.204Z,20.19
2019-06-26T03:50:28.878Z,20.11
2019-06-26T03:53:01.604Z,20.10
2019-06-26T03:55:34.289Z,20.07
2019-06-26T03:58:07.121Z,20.20
2019-06-26T04:00:41.730Z,20.22
2019-06-26T04:03:14.375Z,20.12
2019-06-26T04:05:47.044Z,20.29
2019-06-26T04:08:19.850Z,20.33
2019-06-26T04:10:52.653Z,20.38
2019-06-26T04:13:25.612Z,20.64
2019-06-26T04:15:58.459Z,20.62
2019-06-26T04:18:31.370Z,20.75
2019-06-26T04:21:04.257Z,20.98
2019-06-26T04:23:36.975Z,21.40
2019-06-26T04:26:09.601Z,21.52
2019-06-26T04:28:42.204Z,21.48
2019-06-26T04:31:14.933Z,21.89
2019-06-26T04:33:47.645Z,22.01
2019-06-26T04:36:20.310Z,22.50
2019-06-26T04:38:52.935Z,23.23
2019-06-26T04:41:25.571Z,24.08
2019-06-26T04:43:58.327Z,24.82
2019-06-26T04:46:31.006Z,25.55
2019-06-26T04:49:03.727Z,26.21
2019-06-26T04:51:36.426Z,26.86
2019-06-26T04:54:09.115Z,27.03
2019-06-26T04:56:42.005Z,27.34
2019-06-26T04:59:14.652Z,27.67
2019-06-26T05:01:47.029Z,28.20
2019-06-26T05:04:22.195Z,28.85
2019-06-26T05:06:54.824Z,29.07
2019-06-26T05:09:27.457Z,28.91
2019-06-26T05:12:00.145Z,29.19
2019-06-26T05:14:32.799Z,28.57
2019-06-26T05:17:05.202Z,29.24
2019-06-26T05:19:37.929Z,28.83
2019-06-26T05:22:10.481Z,28.64
2019-06-26T05:24:46.343Z,28.54
2019-06-26T05:27:17.492Z,28.49
2019-06-26T05:29:50.186Z,29.23
2019-06-26T05:32:22.829Z,30.06
2019-06-26T05:34:55.680Z,29.75
2019-06-26T05:37:28.491Z,28.37
2019-06-26T05:40:01.218Z,28.93
2019-06-26T05:42:33.551Z,29.70
2019-06-26T05:45:08.400Z,30.65
2019-06-26T05:47:41.196Z,31.08
2019-06-26T05:50:14.675Z,31.63
2019-06-26T05:52:47.067Z,31.81
2019-06-26T05:55:19.826Z,31.99
2019-06-26T05:57:52.143Z,32.67
2019-06-26T06:00:24.898Z,31.35
2019-06-26T06:02:57.473Z,30.52
2019-06-26T06:05:30.141Z,30.50
2019-06-26T06:08:02.973Z,30.89
2019-06-26T06:10:35.439Z,30.86
2019-06-26T06:13:08.372Z,31.24
2019-06-26T06:15:40.702Z,31.33
2019-06-26T06:18:13.108Z,31.46
2019-06-26T06:20:45.652Z,31.11
2019-06-26T06:23:18.284Z,31.12
2019-06-26T06:25:50.878Z,30.58
2019-06-26T06:28:23.575Z,30.50
2019-06-26T06:30:55.935Z,30.60
2019-06-26T06:33:28.554Z,29.97
2019-06-26T06:36:01.171Z,30.24
2019-06-26T06:38:33.484Z,31.20
2019-06-26T06:41:06.005Z,32.01
2019-06-26T06:43:38.706Z,32.16
2019-06-26T06:46:11.076Z,33.21
2019-06-26T06:48:43.486Z,35.07
2019-06-26T06:51:16.197Z,35.40
2019-06-26T06:53:48.503Z,36.42
2019-06-26T06:56:20.811Z,37.17
2019-06-26T06:58:53.126Z,37.24
2019-06-26T07:01:25.536Z,37.35
2019-06-26T07:03:57.845Z,36.25
2019-06-26T07:06:30.222Z,36.01
2019-06-26T07:09:02.671Z,36.77
2019-06-26T07:11:35.115Z,35.93
2019-06-26T07:14:07.690Z,35.66
2019-06-26T07:16:40.151Z,36.90
2019-06-26T07:19:12.539Z,36.72
2019-06-26T07:21:46.746Z,37.52
2019-06-26T07:24:21.143Z,38.17
2019-06-26T07:26:53.481Z,38.42
2019-06-26T07:29:26.715Z,38.05
2019-06-26T07:31:59.100Z,37.99
2019-06-26T07:34:31.541Z,38.60
2019-06-26T07:37:03.911Z,38.24
2019-06-26T07:39:36.362Z,37.95
2019-06-26T07:42:08.670Z,38.77
2019-06-26T07:44:40.982Z,38.63
2019-06-26T07:47:22.838Z,38.14
2019-06-26T07:49:47.322Z,38.33
2019-06-26T07:52:19.622Z,37.36
2019-06-26T07:54:52.079Z,37.78
2019-06-26T07:57:24.763Z,39.20
2019-06-26T07:59:57.097Z,38.85
2019-06-26T08:02:29.451Z,39.71
2019-06-26T08:05:01.847Z,39.79
2019-06-26T08:07:34.255Z,38.94
2019-06-26T08:10:07.885Z,39.36
2019-06-26T08:12:40.195Z,37.93
2019-06-26T08:15:13.064Z,38.80
2019-06-26T08:17:59.212Z,39.17
2019-06-26T08:20:19.935Z,37.98
2019-06-26T08:22:52.267Z,39.14
2019-06-26T08:25:24.647Z,38.68
2019-06-26T08:27:56.970Z,39.11
2019-06-26T08:30:29.452Z,39.52
2019-06-26T08:33:01.856Z,39.59
2019-06-26T08:35:34.234Z,39.82
2019-06-26T08:38:12.499Z,39.09
2019-06-26T08:40:40.565Z,40.02
2019-06-26T08:43:12.975Z,39.40
2019-06-26T08:45:45.296Z,39.53
2019-06-26T08:48:37.947Z,39.75
2019-06-26T08:50:51.687Z,40.13
2019-06-26T08:53:24.084Z,39.13
2019-06-26T08:55:56.388Z,38.98
2019-06-26T08:58:37.575Z,38.98
2019-06-26T09:01:09.996Z,38.94
2019-06-26T09:03:42.341Z,39.63
2019-06-26T09:06:14.782Z,39.72
2019-06-26T09:08:47.120Z,39.65
2019-06-26T09:11:19.453Z,39.51
2019-06-26T09:13:51.922Z,40.25
2019-06-26T09:16:24.378Z,39.98
2019-06-26T09:18:56.788Z,38.76
2019-06-26T09:21:31.237Z,38.00
2019-06-26T09:24:03.259Z,37.53
2019-06-26T09:26:35.801Z,37.82
2019-06-26T09:29:08.115Z,37.05
2019-06-26T09:31:40.517Z,36.38
2019-06-26T09:34:12.883Z,36.63
2019-06-26T09:36:45.245Z,37.14
2019-06-26T09:39:17.693Z,37.77
2019-06-26T09:41:50.024Z,37.93
2019-06-26T09:44:22.375Z,38.22
2019-06-26T09:46:54.658Z,37.94
2019-06-26T09:49:27.066Z,37.96
2019-06-26T09:51:59.646Z,38.20
2019-06-26T09:54:31.976Z,37.98
2019-06-26T09:57:04.444Z,38.48
2019-06-26T09:59:36.809Z,38.77
2019-06-26T10:02:09.611Z,38.82
2019-06-26T10:04:41.976Z,39.19
2019-06-26T10:07:14.298Z,39.45
2019-06-26T10:09:47.035Z,38.82
2019-06-26T10:12:19.630Z,38.53
2019-06-26T10:14:52.271Z,38.81
2019-06-26T10:17:24.614Z,38.49
2019-06-26T10:19:57.030Z,38.12
2019-06-26T10:22:29.412Z,38.25
2019-06-26T10:25:01.906Z,38.68
2019-06-26T10:27:34.603Z,38.83
2019-06-26T10:30:07.995Z,38.21
2019-06-26T10:32:40.317Z,37.78
2019-06-26T10:35:13.341Z,37.71
2019-06-26T10:37:45.680Z,37.68
2019-06-26T10:40:18.235Z,37.51
2019-06-26T10:42:50.640Z,37.60
2019-06-26T10:45:23.092Z,37.80
2019-06-26T10:47:55.427Z,38.27
2019-06-26T10:50:27.864Z,38.89
2019-06-26T10:53:00.239Z,39.34
2019-06-26T10:55:32.569Z,37.62
2019-06-26T10:58:04.995Z,38.17
2019-06-26T11:00:37.762Z,38.87
2019-06-26T11:03:10.114Z,38.78
2019-06-26T11:05:42.925Z,39.32
2019-06-26T11:08:15.440Z,39.54
2019-06-26T11:10:47.844Z,39.97
2019-06-26T11:13:20.149Z,39.37
2019-06-26T11:15:52.636Z,39.17
2019-06-26T11:18:25.060Z,39.24
2019-06-26T11:20:57.390Z,39.25
2019-06-26T11:23:29.774Z,39.69
2019-06-26T11:26:02.114Z,40.11
2019-06-26T11:28:34.444Z,40.25
2019-06-26T11:31:06.764Z,40.04
2019-06-26T11:33:39.159Z,39.50
2019-06-26T11:36:11.607Z,39.58
2019-06-26T11:38:44.094Z,39.80
2019-06-26T11:41:16.492Z,40.17
2019-06-26T11:43:49.252Z,40.54
2019-06-26T11:46:21.596Z,40.35
2019-06-26T11:48:54.044Z,40.42
2019-06-26T11:51:26.709Z,39.51
2019-06-26T11:53:59.186Z,39.41
2019-06-26T11:56:31.522Z,39.01
2019-06-26T11:59:04.007Z,39.20
2019-06-26T12:01:36.384Z,39.48
2019-06-26T12:04:09.535Z,40.01
2019-06-26T12:06:45.504Z,39.36
2019-06-26T12:09:15.892Z,39.79
2019-06-26T12:11:48.317Z,39.76
2019-06-26T12:14:20.695Z,39.85
2019-06-26T12:16:53.112Z,40.65
2019-06-26T12:19:25.419Z,41.29
2019-06-26T12:21:57.771Z,41.68
2019-06-26T12:24:30.115Z,40.79
2019-06-26T12:27:02.448Z,40.47
2019-06-26T12:29:34.791Z,39.02
2019-06-26T12:32:07.176Z,38.20
2019-06-26T12:34:39.496Z,37.77
2019-06-26T12:37:11.943Z,37.28
2019-06-26T12:39:44.374Z,37.23
2019-06-26T12:42:16.685Z,37.23
2019-06-26T12:44:49.065Z,37.03
2019-06-26T12:47:21.487Z,36.80
2019-06-26T12:49:53.885Z,36.65
2019-06-26T12:52:26.291Z,36.58
2019-06-26T12:54:58.600Z,36.49
2019-06-26T12:57:30.917Z,36.60
2019-06-26T13:00:03.404Z,36.49
2019-06-26T13:02:35.763Z,36.29
2019-06-26T13:05:08.543Z,36.29
2019-06-26T13:07:40.862Z,36.25
2019-06-26T13:10:13.538Z,36.23
2019-06-26T13:12:46.210Z,36.39
2019-06-26T13:15:19.003Z,36.36
2019-06-26T13:17:51.301Z,36.10
2019-06-26T13:20:23.840Z,36.15
2019-06-26T13:22:56.235Z,36.34
2019-06-26T13:25:28.636Z,36.42
2019-06-26T13:28:00.948Z,36.56
2019-06-26T13:30:38.771Z,36.54
2019-06-26T13:33:11.149Z,36.47
2019-06-26T13:35:43.657Z,36.24
2019-06-26T13:38:16.121Z,36.15
2019-06-26T13:40:51.668Z,36.04
2019-06-26T13:43:22.471Z,36.04
2019-06-26T13:45:58.588Z,36.00
2019-06-26T13:48:28.931Z,36.04
2019-06-26T13:51:09.270Z,36.04
2019-06-26T13:53:35.375Z,35.92
2019-06-26T13:56:07.716Z,35.87
2019-06-26T13:58:40.045Z,35.93
2019-06-26T14:01:12.441Z,35.88
2019-06-26T14:03:44.741Z,35.68
2019-06-26T14:06:17.083Z,35.91
2019-06-26T14:08:49.482Z,36.03
2019-06-26T14:11:21.809Z,35.95
2019-06-26T14:13:54.432Z,35.94
2019-06-26T14:16:29.834Z,35.92
2019-06-26T14:19:00.858Z,35.85
2019-06-26T14:21:33.283Z,35.88
2019-06-26T14:24:05.735Z,35.91
2019-06-26T14:26:38.147Z,35.78
2019-06-26T14:29:20.408Z,35.86
2019-06-26T14:31:44.655Z,35.82
2019-06-26T14:34:17.198Z,35.84
2019-06-26T14:36:49.793Z,35.85
2019-06-26T14:39:22.110Z,35.68
2019-06-26T14:41:54.459Z,35.67
2019-06-26T14:44:27.079Z,35.81
2019-06-26T14:46:59.561Z,35.90
2019-06-26T14:49:31.875Z,35.82
2019-06-26T14:52:04.273Z,35.82
2019-06-26T14:54:36.674Z,35.90
2019-06-26T14:57:09.094Z,35.81
2019-06-26T14:59:41.441Z,35.73
2019-06-26T15:02:13.835Z,35.67
2019-06-26T15:04:46.450Z,35.62
2019-06-26T15:07:18.983Z,35.83
2019-06-26T15:09:51.677Z,35.87
2019-06-26T15:12:24.050Z,35.76
2019-06-26T15:14:56.522Z,35.58
2019-06-26T15:17:29.042Z,35.62
2019-06-26T15:20:02.767Z,35.59
2019-06-26T15:22:35.213Z,35.56
2019-06-26T15:25:09.118Z,35.67
2019-06-26T15:27:41.549Z,35.61
2019-06-26T15:30:14.193Z,35.64
2019-06-26T15:32:48.461Z,35.61
2019-06-26T15:35:21.037Z,35.41
2019-06-26T15:37:53.359Z,35.36
2019-06-26T15:40:25.915Z,35.44
2019-06-26T15:42:58.256Z,35.35
2019-06-26T15:45:30.686Z,34.97
2019-06-26T15:48:03.143Z,34.66
2019-06-26T15:50:35.453Z,34.47
2019-06-26T15:53:07.836Z,34.18
2019-06-26T15:56:00.681Z,34.11
2019-06-26T15:58:33.691Z,33.68
2019-06-26T16:01:06.339Z,33.20
2019-06-26T16:03:38.788Z,32.83
2019-06-26T16:06:11.160Z,32.36
2019-06-26T16:08:43.457Z,31.99
2019-06-26T16:11:15.766Z,31.97
2019-06-26T16:13:48.142Z,32.26
2019-06-26T16:16:20.873Z,32.52
2019-06-26T16:18:58.768Z,32.86
2019-06-26T16:21:31.214Z,33.11
2019-06-26T16:24:03.573Z,33.24
2019-06-26T16:26:36.004Z,33.27
2019-06-26T16:29:08.370Z,33.43
2019-06-26T16:31:40.784Z,33.64
2019-06-26T16:34:13.126Z,33.77
2019-06-26T16:36:45.507Z,33.73
2019-06-26T16:39:18.308Z,33.82
2019-06-26T16:41:50.692Z,33.92
2019-06-26T16:44:23.117Z,33.99
2019-06-26T16:46:59.140Z,34.09
2019-06-26T16:49:29.471Z,34.09
2019-06-26T16:52:01.872Z,34.11
2019-06-26T16:54:34.345Z,34.14
2019-06-26T16:57:06.851Z,34.20
2019-06-26T16:59:39.207Z,34.21
2019-06-26T17:02:11.607Z,34.12
2019-06-26T17:04:43.964Z,34.13
2019-06-26T17:07:16.376Z,34.03
2019-06-26T17:09:48.875Z,34.01
2019-06-26T17:12:21.427Z,34.00
2019-06-26T17:14:54.156Z,33.99
2019-06-26T17:17:26.605Z,34.05
2019-06-26T17:19:58.983Z,34.01
2019-06-26T17:22:31.327Z,33.99
2019-06-26T17:25:03.789Z,33.97
2019-06-26T17:27:36.266Z,33.98
2019-06-26T17:30:10.258Z,34.08
2019-06-26T17:32:42.664Z,33.76
2019-06-26T17:35:15.410Z,33.70
2019-06-26T17:37:47.809Z,33.78
2019-06-26T17:40:20.773Z,33.82
2019-06-26T17:42:53.280Z,33.70
2019-06-26T17:45:25.739Z,33.60
2019-06-26T17:47:58.409Z,33.58
2019-06-26T17:50:30.927Z,33.32
2019-06-26T17:53:03.554Z,33.34
2019-06-26T17:55:35.948Z,33.41
2019-06-26T17:58:08.536Z,33.42
2019-06-26T18:00:40.927Z,33.36
2019-06-26T18:03:14.231Z,33.24
2019-06-26T18:05:46.653Z,33.09
2019-06-26T18:08:21.007Z,33.06
2019-06-26T18:10:53.882Z,33.00
2019-06-26T18:13:48.436Z,32.92
2019-06-26T18:16:21.024Z,32.81
2019-06-26T18:18:53.439Z,32.68
2019-06-26T18:21:25.866Z,32.60
2019-06-26T18:23:58.215Z,32.37
2019-06-26T18:26:30.682Z,32.33
2019-06-26T18:29:03.136Z,32.24
2019-06-26T18:31:35.639Z,32.13
2019-06-26T18:34:07.993Z,32.10
2019-06-26T18:36:40.363Z,32.03
2019-06-26T18:39:12.917Z,31.94
2019-06-26T18:41:45.285Z,31.82
2019-06-26T18:44:17.665Z,31.69
2019-06-26T18:46:49.967Z,31.58
2019-06-26T18:49:22.276Z,31.51
2019-06-26T18:51:54.703Z,31.43
2019-06-26T18:54:27.085Z,31.37
2019-06-26T18:56:59.399Z,31.26
2019-06-26T18:59:32.151Z,31.15
2019-06-26T19:02:04.484Z,31.02
2019-06-26T19:04:36.988Z,30.93
2019-06-26T19:07:09.344Z,30.82
2019-06-26T19:09:41.872Z,30.71
2019-06-26T19:12:14.297Z,30.55
2019-06-26T19:14:46.691Z,30.43
2019-06-26T19:17:19.075Z,30.32
2019-06-26T19:19:51.498Z,30.20
2019-06-26T19:22:23.867Z,30.10
2019-06-26T19:24:56.443Z,30.02
2019-06-26T19:27:28.825Z,29.83
2019-06-26T19:30:01.271Z,29.75
2019-06-26T19:32:36.511Z,29.62
2019-06-26T19:35:18.696Z,29.50
2019-06-26T19:37:43.053Z,29.40
2019-06-26T19:40:15.769Z,29.25
2019-06-26T19:42:48.434Z,29.13
2019-06-26T19:45:23.417Z,28.99
2019-06-26T19:47:55.863Z,28.84
2019-06-26T19:50:28.297Z,28.77
2019-06-26T19:53:00.732Z,28.67
2019-06-26T19:55:33.138Z,28.54
2019-06-26T19:58:05.936Z,28.48
2019-06-26T20:00:38.271Z,28.37
2019-06-26T20:03:10.886Z,28.29
2019-06-26T20:05:43.604Z,28.26
2019-06-26T20:08:16.000Z,28.16
2019-06-26T20:10:48.624Z,28.16
2019-06-26T20:13:21.009Z,28.12
2019-06-26T20:15:53.688Z,28.02
2019-06-26T20:18:26.331Z,27.92
2019-06-26T20:20:58.755Z,27.82
2019-06-26T20:23:31.358Z,27.77
2019-06-26T20:26:04.767Z,27.72
2019-06-26T20:28:37.360Z,27.64
2019-06-26T20:31:10.085Z,27.58
2019-06-26T20:33:42.733Z,27.30
2019-06-26T20:36:15.421Z,27.27
2019-06-26T20:38:48.143Z,27.23
2019-06-26T20:41:20.820Z,27.14
2019-06-26T20:43:53.598Z,27.11
2019-06-26T20:46:26.313Z,26.99
2019-06-26T20:48:59.392Z,26.97
2019-06-26T20:51:32.384Z,26.88
2019-06-26T20:54:05.437Z,26.80
2019-06-26T20:56:38.078Z,26.74
2019-06-26T20:59:10.747Z,26.65
2019-06-26T21:01:43.987Z,26.62
2019-06-26T21:04:17.447Z,26.49
2019-06-26T21:06:51.003Z,26.39
2019-06-26T21:09:24.640Z,26.30
2019-06-26T21:11:59.225Z,26.19
2019-06-26T21:14:32.796Z,26.14
2019-06-26T21:17:06.320Z,26.06
2019-06-26T21:19:40.546Z,26.01
2019-06-26T21:22:14.093Z,25.98
2019-06-26T21:24:48.348Z,25.93
2019-06-26T21:27:21.782Z,25.87
2019-06-26T21:29:55.439Z,25.80
2019-06-26T21:32:29.013Z,25.76
2019-06-26T21:35:01.726Z,25.70
2019-06-26T21:37:34.451Z,25.65
2019-06-26T21:40:07.273Z,25.62
2019-06-26T21:42:40.748Z,25.60
2019-06-26T21:45:13.901Z,25.56
2019-06-26T21:47:46.816Z,25.55
2019-06-26T21:50:20.403Z,25.46
2019-06-26T21:52:55.064Z,25.39
2019-06-26T21:55:34.347Z,25.28
2019-06-26T21:58:04.112Z,25.24
2019-06-26T22:00:50.764Z,25.14
2019-06-26T22:03:24.626Z,25.08
2019-06-26T22:06:00.757Z,25.05
2019-06-26T22:08:34.324Z,24.88
2019-06-26T22:11:07.977Z,24.89
2019-06-26T22:13:41.765Z,24.84
2019-06-26T22:16:15.211Z,24.73
2019-06-26T22:19:08.609Z,24.64
2019-06-26T22:21:42.270Z,24.57
2019-06-26T22:24:15.695Z,24.52
2019-06-26T22:26:49.189Z,24.55
2019-06-26T22:29:22.735Z,24.58
2019-06-26T22:31:56.346Z,24.53
2019-06-26T22:34:29.608Z,24.58
2019-06-26T22:37:02.920Z,24.57
2019-06-26T22:39:36.529Z,24.63
2019-06-26T22:42:10.172Z,24.55
2019-06-26T22:44:43.844Z,24.58
2019-06-26T22:47:17.355Z,24.38
2019-06-26T22:49:50.848Z,24.33
2019-06-26T22:52:24.438Z,24.36
2019-06-26T22:54:57.918Z,24.32
2019-06-26T22:57:31.404Z,24.38
2019-06-26T23:00:06.206Z,24.37
2019-06-26T23:02:39.640Z,24.40
2019-06-26T23:05:13.625Z,24.39
2019-06-26T23:07:47.173Z,24.34
2019-06-26T23:10:23.322Z,24.33
2019-06-26T23:12:56.874Z,24.48
2019-06-26T23:15:29.574Z,24.30
2019-06-26T23:18:02.213Z,24.22
2019-06-26T23:20:34.883Z,24.06
2019-06-26T23:23:07.516Z,24.16
2019-06-26T23:25:40.157Z,24.09
2019-06-26T23:28:12.770Z,24.01
2019-06-26T23:30:45.403Z,23.96
2019-06-26T23:33:18.216Z,24.11
2019-06-26T23:35:50.875Z,24.09
2019-06-26T23:38:23.817Z,24.13
2019-06-26T23:40:56.630Z,24.08
2019-06-26T23:43:29.434Z,24.03
2019-06-26T23:46:02.182Z,24.04
2019-06-26T23:48:34.878Z,24.08
2019-06-26T23:51:07.509Z,24.22
2019-06-26T23:53:40.199Z,24.03
2019-06-26T23:56:12.949Z,24.00
2019-06-26T23:58:45.662Z,23.98
